Latest Weather Observations for Roebourne Airport

IDW60801

Issued at 9:02 pm WST Friday 27 March 2015 (issued every 30 minutes, with the page automatically refreshed every 10 minutes)

About weather observations | Map of weather stations | Latest weather observations for WA | Other Formats
Station Details ID: 004090 Name: ROEBOURNE AERO Lat: -20.76 Lon: 117.16 Height: 10.7 m
Data from the previous 72 hours. | See also: Recent months at Roebourne Airport
Date/Time
WST
Temp
°C
App
Temp
°C
Dew
Point
Rel
Hum
%
Delta-T
°C
Wind Press
QNH
hPa
Press
MSL
hPa
Rain
since 9 am
mm
Dir
 
Spd
km/h
Gust
km/h
Spd
kts
Gust
kts
27/09:00pm 30.9 31.6 18.9 48 7.8 ESE 13 17 7 9 1014.3 1014.2 0.0
27/08:30pm 30.8 34.6 24.7 70 4.3 ESE 13 15 7 8 1014.1 1014.0 0.0
27/08:00pm 30.8 35.7 25.2 72 4.0 SE 9 11 5 6 1013.8 1013.7 0.0
27/07:30pm 30.7 35.9 25.1 72 3.9 SSE 7 11 4 6 1013.2 1013.2 0.0
27/07:00pm 30.8 33.8 24.7 70 4.3 ENE 17 22 9 12 1012.5 1012.5 0.0
27/06:30pm 31.0 33.3 23.4 64 5.2 NNE 17 20 9 11 1011.7 1011.7 0.0
27/06:00pm 31.7 32.1 21.8 55 6.7 NNE 22 30 12 16 1011.2 1011.2 0.0
27/05:30pm 33.3 31.9 19.7 44 9.0 NNE 26 32 14 17 1010.8 1010.8 0.0
27/05:00pm 34.2 32.0 17.8 37 10.6 NNE 26 33 14 18 1010.6 1010.6 0.0
27/04:30pm 35.2 32.1 16.5 33 11.9 N 28 33 15 18 1010.6 1010.6 0.0
27/04:00pm 36.8 33.0 14.7 26 13.8 NNE 28 35 15 19 1010.4 1010.4 0.0
27/03:30pm 37.7 34.1 14.3 25 14.6 NNE 26 33 14 18 1010.6 1010.6 0.0
27/03:00pm 37.9 35.2 14.5 25 14.6 NNE 22 30 12 16 1010.6 1010.6 0.0
27/02:30pm 39.0 36.5 14.1 23 15.5 NNE 20 26 11 14 1010.7 1010.7 0.0
27/02:00pm 38.8 37.2 13.9 22 15.5 NE 15 26 8 14 1010.9 1010.9 0.0
27/01:30pm 39.3 36.9 14.3 22 15.7 NE 20 28 11 15 1011.3 1011.3 0.0
27/01:00pm 38.2 35.3 14.1 24 15.0 ENE 22 30 12 16 1011.8 1011.8 0.0
27/12:30pm 38.1 35.4 14.6 24 14.7 ENE 22 33 12 18 1012.4 1012.4 0.0
27/12:00pm 37.8 34.4 13.7 23 14.9 ENE 24 32 13 17 1012.8 1012.8 0.0
27/11:30am 37.8 33.7 13.7 23 14.9 ENE 28 37 15 20 1013.2 1013.2 0.0
27/11:00am 36.8 33.0 12.3 23 14.8 ESE 24 37 13 20 1013.7 1013.6 0.0
27/10:30am 35.5 31.7 12.5 25 13.8 ESE 24 41 13 22 1014.1 1014.0 0.0
27/10:00am 34.7 30.3 13.0 27 13.1 ESE 28 37 15 20 1014.5 1014.4 0.0
27/09:30am 33.3 28.7 12.3 28 12.5 ESE 28 35 15 19 1014.8 1014.7 0.0
27/09:00am 32.5 28.0 12.7 30 11.8 ESE 28 35 15 19 1015.0 1014.9 0.0
27/08:30am 31.4 27.7 12.7 32 11.1 ESE 24 32 13 17 1014.9 1014.8 0.0
27/08:00am 30.6 27.7 13.0 34 10.5 ESE 20 28 11 15 1015.0 1014.9 0.0
27/07:30am 30.3 28.6 13.6 36 10.0 ESE 15 20 8 11 1014.8 1014.7 0.0
27/07:00am 27.2 27.0 14.6 46 7.6 SE 9 11 5 6 1014.6 1014.5 0.0
27/06:30am 24.8 24.4 14.0 51 6.4 SE 9 11 5 6 1014.5 1014.4 0.0
27/06:00am 25.0 24.6 14.2 51 6.4 S 9 11 5 6 1014.5 1014.4 0.0
27/05:30am 24.9 24.1 14.1 51 6.4 SSE 11 11 6 6 1014.3 1014.2 0.0
27/05:00am 25.5 25.5 14.3 50 6.7 SSE 7 9 4 5 1014.2 1014.1 0.0
27/04:30am 25.4 25.1 14.5 51 6.5 SSE 9 11 5 6 1014.2 1014.1 0.0
27/04:00am 26.0 25.4 14.5 49 6.9 SSE 11 11 6 6 1014.1 1014.0 0.0
27/03:30am 26.4 25.8 14.5 48 7.1 SE 11 11 6 6 1014.2 1014.1 0.0
27/03:00am 27.8 26.5 14.8 45 7.9 SSE 15 19 8 10 1014.1 1014.0 0.0
27/02:30am 28.6 26.5 15.2 44 8.2 SE 20 26 11 14 1014.1 1014.0 0.0
27/02:00am 28.3 27.9 15.2 44 8.0 SE 11 17 6 9 1014.2 1014.1 0.0
27/01:30am 27.6 27.7 15.6 48 7.3 SE 9 13 5 7 1014.5 1014.4 0.0
27/01:00am 27.5 27.6 15.5 48 7.3 SSE 9 13 5 7 1014.5 1014.4 0.0
27/12:30am 27.3 27.1 15.6 48 7.1 SSE 11 15 6 8 1014.7 1014.6 0.0
27/12:00am 27.0 26.9 16.0 51 6.8 SSE 11 13 6 7 1014.7 1014.6 0.0
 
Date/Time
WST
Temp
°C
App
Temp
°C
Dew
Point
Rel
Hum
%
Delta-T
°C
Wind Press
QNH
hPa
Press
MSL
hPa
Rain
since 9 am
mm
Dir
 
Spd
km/h
Gust
km/h
Spd
kts
Gust
kts
26/11:30pm 27.6 28.1 16.6 51 6.8 S 9 11 5 6 1014.7 1014.6 0.0
26/11:00pm 28.0 28.5 16.6 50 7.1 SSW 9 11 5 6 1014.9 1014.8 0.0
26/10:30pm 28.7 29.1 16.3 47 7.7 SW 9 11 5 6 1014.9 1014.8 0.0
26/10:00pm 29.5 30.4 16.7 46 8.0 SW 7 9 4 5 1015.1 1015.0 0.0
26/09:30pm 30.4 30.8 16.4 43 8.8 SW 9 13 5 7 1015.0 1014.9 0.0
26/09:00pm 30.0 31.6 16.8 45 8.3 WSW 4 7 2 4 1014.9 1014.8 0.0
26/08:30pm 31.3 31.7 17.2 42 9.0 WSW 11 13 6 7 1014.6 1014.5 0.0
26/08:00pm 31.8 32.1 18.0 43 8.9 WSW 13 17 7 9 1014.2 1014.1 0.0
26/07:30pm 30.4 31.9 18.8 50 7.5 SW 9 17 5 9 1014.0 1013.9 0.0
26/07:00pm 31.0 32.0 19.4 50 7.6 NNW 13 15 7 8 1013.2 1013.2 0.0
26/06:30pm 31.9 31.9 18.1 43 8.9 NNW 15 19 8 10 1012.7 1012.7 0.0
26/06:00pm 33.5 32.2 17.2 37 10.4 N 20 26 11 14 1012.2 1012.2 0.0
26/05:30pm 34.6 33.3 17.3 35 11.1 N 20 26 11 14 1012.1 1012.1 0.0
26/05:00pm 36.1 33.8 15.8 30 12.8 N 22 28 12 15 1011.9 1011.9 0.0
26/04:30pm 36.2 33.8 15.3 28 13.1 N 22 28 12 15 1011.8 1011.8 0.0
26/04:00pm 37.1 34.2 15.0 27 13.9 N 24 30 13 16 1011.8 1011.8 0.0
26/03:30pm 37.6 34.8 14.2 25 14.5 N 22 28 12 15 1011.8 1011.8 0.0
26/03:00pm 37.5 34.6 14.1 24 14.5 NNE 22 32 12 17 1011.8 1011.8 0.0
26/02:30pm 38.9 36.0 14.0 23 15.5 NNE 22 30 12 16 1012.1 1012.1 0.0
26/02:00pm 39.8 36.3 13.3 20 16.4 NE 24 30 13 16 1012.2 1012.2 0.0
26/01:30pm 38.2 35.3 14.1 24 15.0 NE 22 30 12 16 1012.5 1012.5 0.0
26/01:00pm 38.7 35.9 13.2 22 15.7 NE 20 30 11 16 1012.8 1012.8 0.0
26/12:30pm 37.9 35.3 13.8 23 14.9 ENE 20 33 11 18 1013.1 1013.1 0.0
26/12:00pm 37.7 34.9 14.3 25 14.6 ENE 22 33 12 18 1013.4 1013.4 0.0
26/11:30am 36.9 32.7 13.6 24 14.3 E 28 35 15 19 1014.1 1014.0 0.0
26/11:00am 36.6 32.4 13.4 25 14.2 ENE 28 35 15 19 1014.4 1014.3 0.0
26/10:30am 35.7 30.8 12.6 25 13.9 E 30 39 16 21 1014.7 1014.6 0.0
26/10:00am 35.3 30.3 12.3 25 13.8 E 30 39 16 21 1015.0 1014.9 0.0
26/09:30am 34.6 29.6 12.3 26 13.3 ESE 30 39 16 21 1015.5 1015.4 0.0
26/09:00am 33.4 27.9 12.4 28 12.5 ESE 33 41 18 22 1015.3 1015.2 0.0
26/08:30am 32.9 27.8 13.0 30 11.9 ESE 32 41 17 22 1015.3 1015.2 0.0
26/08:00am 31.7 27.1 13.5 33 10.9 SE 30 37 16 20 1015.3 1015.2 0.0
26/07:30am 30.8 28.9 15.2 38 9.6 SE 19 32 10 17 1015.2 1015.1 0.0
26/07:00am 28.6 28.3 16.5 48 7.5 ESE 13 15 7 8 1014.8 1014.7 0.0
26/06:30am 25.7 25.8 16.5 56 5.7 SE 11 15 6 8 1014.2 1014.1 0.0
26/06:00am 25.7 26.3 16.8 58 5.5 S 9 11 5 6 1014.0 1013.9 0.0
26/05:30am 25.7 26.0 17.1 59 5.3 SSW 11 13 6 7 1013.9 1013.8 0.0
26/05:00am 25.2 25.3 16.6 59 5.3 SSW 11 13 6 7 1013.6 1013.5 0.0
26/04:30am 25.1 25.1 16.3 58 5.4 SSW 11 13 6 7 1013.3 1013.3 0.0
26/04:00am 25.0 24.9 15.0 53 6.0 SW 9 11 5 6 1013.2 1013.2 0.0
26/03:30am 25.4 25.7 15.1 53 6.2 SW 7 11 4 6 1013.3 1013.3 0.0
26/03:00am 25.8 27.6 15.5 53 6.2 CALM 0 0 0 0 1013.4 1013.4 0.0
26/02:30am 25.6 27.0 14.4 50 6.7 CALM 0 0 0 0 1013.4 1013.4 0.0
26/02:00am 26.4 28.0 14.8 49 7.0 CALM 0 0 0 0 1013.3 1013.3 0.0
26/01:30am 26.4 25.8 14.5 48 7.1 SSW 11 13 6 7 1013.4 1013.4 0.0
26/01:00am 27.0 26.4 14.7 47 7.4 SSW 11 13 6 7 1013.4 1013.4 0.0
26/12:30am 27.4 26.9 14.8 46 7.6 SW 11 13 6 7 1013.8 1013.7 0.0
26/12:00am 27.4 27.6 14.8 46 7.6 WSW 7 9 4 5 1014.1 1014.0 0.0
 
Date/Time
WST
Temp
°C
App
Temp
°C
Dew
Point
Rel
Hum
%
Delta-T
°C
Wind Press
QNH
hPa
Press
MSL
hPa
Rain
since 9 am
mm
Dir
 
Spd
km/h
Gust
km/h
Spd
kts
Gust
kts
25/11:30pm 27.8 28.1 14.4 43 8.1 SSW 6 9 3 5 1014.1 1014.0 0.0
25/11:00pm 28.0 29.5 14.6 44 8.1 CALM 0 0 0 0 1014.3 1014.2 0.0
25/10:30pm 28.7 27.8 14.9 43 8.4 S 13 19 7 10 1014.4 1014.3 0.0
25/10:00pm 28.8 28.1 15.3 43 8.3 S 13 20 7 11 1014.7 1014.6 0.0
25/09:30pm 28.8 27.2 16.0 45 7.9 S 19 22 10 12 1014.9 1014.8 0.0
25/09:00pm 29.2 27.3 16.7 46 7.8 S 22 32 12 17 1014.7 1014.6 0.0
25/08:30pm 29.9 27.6 17.7 48 7.8 SSW 26 33 14 18 1014.4 1014.3 0.0
25/08:00pm 31.3 30.5 17.9 44 8.6 SW 19 33 10 18 1014.1 1014.0 0.0
25/07:30pm 31.2 31.9 18.9 48 8.0 SW 13 17 7 9 1013.9 1013.8 0.0
25/07:00pm 31.0 32.5 19.0 48 7.8 NW 9 13 5 7 1013.0 1013.0 0.0
25/06:30pm 31.4 31.9 18.4 46 8.4 NNW 13 17 7 9 1012.4 1012.4 0.0
25/06:00pm 31.9 31.3 18.5 45 8.7 NNW 19 20 10 11 1011.9 1011.9 0.0
25/05:30pm 33.0 32.5 19.1 43 9.1 NNW 20 24 11 13 1011.6 1011.6 0.0
25/05:00pm 34.0 32.1 16.8 35 11.0 N 22 30 12 16 1011.4 1011.4 0.0
25/04:30pm 34.5 32.1 16.4 34 11.5 N 24 30 13 16 1011.4 1011.4 0.0
25/04:00pm 34.9 32.2 15.7 31 12.1 N 24 30 13 16 1011.2 1011.2 0.0
25/03:30pm 35.2 33.0 17.0 34 11.7 N 24 30 13 16 1011.3 1011.3 0.0
25/03:00pm 35.2 33.0 17.0 34 11.7 N 24 30 13 16 1011.6 1011.6 0.0
25/02:30pm 35.5 33.1 16.3 32 12.2 NNE 24 32 13 17 1011.8 1011.8 0.0
25/02:00pm 36.1 33.3 16.3 31 12.6 NNE 26 33 14 18 1012.0 1012.0 0.0
25/01:30pm 36.5 33.8 15.6 29 13.2 NE 24 35 13 19 1012.3 1012.3 0.0
25/01:00pm 36.1 34.0 16.3 31 12.6 NE 22 32 12 17 1012.7 1012.7 0.0
25/12:30pm 35.5 33.1 16.3 32 12.2 ENE 24 35 13 19 1012.9 1012.9 0.0
25/12:00pm 34.9 33.2 17.2 35 11.4 ENE 22 33 12 18 1013.4 1013.4 0.0
25/11:30am 34.1 31.9 17.8 38 10.5 ENE 26 32 14 17 1013.8 1013.7 0.0
25/11:00am 33.1 30.6 18.1 41 9.7 ENE 28 37 15 20 1014.2 1014.1 0.0
25/10:30am 33.1 30.4 18.5 42 9.5 ENE 30 41 16 22 1014.4 1014.3 0.0
25/10:00am 32.4 29.0 16.7 39 9.9 ENE 30 43 16 23 1014.7 1014.6 0.0
25/09:30am 31.8 27.9 16.5 39 9.6 ENE 32 41 17 22 1014.9 1014.8 0.0
25/09:00am 30.7 28.3 17.4 45 8.4 ENE 26 35 14 19 1015.0 1014.9 0.0
25/08:30am 30.8 28.2 16.8 43 8.8 E 26 33 14 18 1014.7 1014.6 0.0
25/08:00am 29.6 28.7 17.8 49 7.5 ESE 19 24 10 13 1014.5 1014.4 0.0
25/07:30am 28.1 28.7 18.5 56 6.1 E 13 17 7 9 1014.6 1014.5 0.0
25/07:00am 26.6 28.4 18.7 62 5.0 E 7 7 4 4 1014.5 1014.4 0.0
25/06:30am 25.6 26.9 18.5 65 4.5 ESE 9 13 5 7 1014.4 1014.3 0.0
25/06:00am 25.7 26.1 18.1 63 4.8 ESE 13 19 7 10 1014.2 1014.1 0.0
25/05:30am 26.2 25.7 17.8 60 5.3 E 17 22 9 12 1013.9 1013.8 0.0
25/05:00am 26.6 25.6 17.9 59 5.5 E 20 28 11 15 1013.6 1013.5 0.0
25/04:30am 26.5 26.8 19.6 66 4.5 ESE 17 22 9 12 1013.4 1013.4 0.0
25/04:00am 26.5 27.4 20.1 68 4.2 E 15 19 8 10 1013.3 1013.3 0.0
25/03:30am 26.6 28.2 20.7 70 3.9 ESE 13 15 7 8 1013.2 1013.2 0.0
25/03:00am 26.5 29.0 21.7 75 3.2 E 11 20 6 11 1013.2 1013.2 0.0
25/02:30am 27.0 30.4 21.7 73 3.5 ESE 6 7 3 4 1013.0 1013.0 0.0
25/02:00am 27.3 31.0 22.3 74 3.4 ESE 6 7 3 4 1013.2 1013.2 0.0
25/01:30am 27.0 30.8 22.4 76 3.1 SE 6 7 3 4 1013.2 1013.2 0.0
25/01:00am 27.4 31.1 22.6 75 3.2 SSW 7 9 4 5 1013.0 1013.0 0.0
25/12:30am 28.0 31.1 22.9 74 3.5 SW 11 13 6 7 1013.0 1013.0 0.0
25/12:00am 28.2 31.4 23.1 74 3.5 SW 11 15 6 8 1013.3 1013.3 0.0
 
Date/Time
WST
Temp
°C
App
Temp
°C
Dew
Point
Rel
Hum
%
Delta-T
°C
Wind Press
QNH
hPa
Press
MSL
hPa
Rain
since 9 am
mm
Dir
 
Spd
km/h
Gust
km/h
Spd
kts
Gust
kts
24/11:30pm 28.6 30.8 23.3 73 3.6 SW 17 22 9 12 1013.2 1013.2 0.0
24/11:00pm 28.9 31.1 23.3 72 3.8 WSW 17 22 9 12 1013.3 1013.3 0.0
24/10:30pm 29.1 31.3 23.3 71 4.0 WSW 17 20 9 11 1013.2 1013.2 0.0
24/10:00pm 29.2 32.2 23.4 71 4.0 W 13 19 7 10 1013.1 1013.1 0.0
24/09:30pm 29.3 32.3 23.3 70 4.1 W 13 15 7 8 1013.0 1013.0 0.0

Other Formats:

Comma delimited format used in spreadsheet applications
http://www.bom.gov.au/fwo/IDW60801/IDW60801.94308.axf

JavaScript Object Notation format (JSON) in row-major order
http://www.bom.gov.au/fwo/IDW60801/IDW60801.94308.json